Main page
METAR-TAF:

METAR-TAF

Airports :

Hévíz–Balaton Airport

Hévíz, Hungary

latitude: 46-41-11N, longitude: 017-09-33E, elevation: 124 m

Current weather observation

The report was made 48 minutes ago, at 08:15 UTC
Wind 2 kt from the East/Northeast
Temperature 20°C
Humidity 88%
Pressure 1018 hPa
Visibility: 3500 m
Few clouds at a height of 400 ft
mist

METAR: LHSM 210815Z 07002KT 3500 BR FEW004 20/18 Q1018 BECMG 8000 NSW NSC

Time: 11:03 (09:03 UTC)

Forecast

The report was made 48 minutes ago, at 08:15 UTC
Forecast valid from 21 at 09 UTC to 21 at 18 UTC
Wind 3 kt from variable directions
Visibility: 5000 m
mist
Becoming
from 21 at 09 UTC to 21 at 11 UTC
Wind 6 kt from the South
Visibility 10 km or more
no clouds below 1500 m and no cumulonimbus

TAF: LHSM 210815Z 2109/2118 VRB03KT 5000 BR NSC BECMG 2109/2111 17006KT CAVOK

Weather observations and forecasts of more than 4000 airports (METAR and TAF reports).

The available stations are represented by yellow and red dots on the map.

Hover mouse over dot to see the name of the station.

Then click to see weather observations and forecasts.

To change the map : click on the green buttons with a black cross to zoom in, on the green button with a dash to zoom out, or on the green arrows for adjacent maps.


METAR-TAF: